sensor_id;sensor_type;location;lat;lon;timestamp;temperature;humidity
54126;DHT22;40360;52.992;6.796;2023-09-08T00:02:09;17.90;99.90
54126;DHT22;40360;52.992;6.796;2023-09-08T00:04:35;17.90;99.90
54126;DHT22;40360;52.992;6.796;2023-09-08T00:07:01;17.90;99.90
54126;DHT22;40360;52.992;6.796;2023-09-08T00:09:27;17.90;99.90
54126;DHT22;40360;52.992;6.796;2023-09-08T00:11:52;17.90;99.90
54126;DHT22;40360;52.992;6.796;2023-09-08T00:14:19;17.80;99.90
54126;DHT22;40360;52.992;6.796;2023-09-08T00:16:45;17.80;99.90
54126;DHT22;40360;52.992;6.796;2023-09-08T00:19:11;17.70;99.90
54126;DHT22;40360;52.992;6.796;2023-09-08T00:21:37;17.70;99.90
54126;DHT22;40360;52.992;6.796;2023-09-08T00:24:04;17.70;99.90
54126;DHT22;40360;52.992;6.796;2023-09-08T00:26:29;17.50;99.90
54126;DHT22;40360;52.992;6.796;2023-09-08T00:28:55;17.50;99.90
54126;DHT22;40360;52.992;6.796;2023-09-08T00:31:21;17.40;99.90
54126;DHT22;40360;52.992;6.796;2023-09-08T00:33:46;17.40;99.90
54126;DHT22;40360;52.992;6.796;2023-09-08T00:36:12;17.40;99.90
54126;DHT22;40360;52.992;6.796;2023-09-08T00:38:37;17.50;99.90
54126;DHT22;40360;52.992;6.796;2023-09-08T00:41:04;17.30;99.90
54126;DHT22;40360;52.992;6.796;2023-09-08T00:43:30;17.20;99.90
54126;DHT22;40360;52.992;6.796;2023-09-08T00:45:56;17.10;99.90
54126;DHT22;40360;52.992;6.796;2023-09-08T00:48:24;17.10;99.90
54126;DHT22;40360;52.992;6.796;2023-09-08T00:50:50;17.00;99.90
54126;DHT22;40360;52.992;6.796;2023-09-08T00:53:16;17.00;99.90
54126;DHT22;40360;52.992;6.796;2023-09-08T00:55:42;16.90;99.90
54126;DHT22;40360;52.992;6.796;2023-09-08T00:58:08;16.90;99.90
54126;DHT22;40360;52.992;6.796;2023-09-08T01:00:34;16.80;99.90
54126;DHT22;40360;52.992;6.796;2023-09-08T01:03:00;16.80;99.90
54126;DHT22;40360;52.992;6.796;2023-09-08T01:05:25;16.80;99.90
54126;DHT22;40360;52.992;6.796;2023-09-08T01:07:52;16.80;99.90
54126;DHT22;40360;52.992;6.796;2023-09-08T01:10:18;16.70;99.90
54126;DHT22;40360;52.992;6.796;2023-09-08T01:12:44;16.70;99.90
54126;DHT22;40360;52.992;6.796;2023-09-08T01:15:10;16.70;99.90
54126;DHT22;40360;52.992;6.796;2023-09-08T01:17:35;16.70;99.90
54126;DHT22;40360;52.992;6.796;2023-09-08T01:20:17;16.60;99.90
54126;DHT22;40360;52.992;6.796;2023-09-08T01:25:40;16.60;99.90
54126;DHT22;40360;52.992;6.796;2023-09-08T01:28:11;16.50;99.90
54126;DHT22;40360;52.992;6.796;2023-09-08T01:30:38;16.50;99.90
54126;DHT22;40360;52.992;6.796;2023-09-08T01:33:04;16.50;99.90
54126;DHT22;40360;52.992;6.796;2023-09-08T01:35:30;16.50;99.90
54126;DHT22;40360;52.992;6.796;2023-09-08T01:37:55;16.50;99.90
54126;DHT22;40360;52.992;6.796;2023-09-08T01:40:21;16.50;99.90
54126;DHT22;40360;52.992;6.796;2023-09-08T01:42:48;16.40;99.90
54126;DHT22;40360;52.992;6.796;2023-09-08T01:45:13;16.40;99.90
54126;DHT22;40360;52.992;6.796;2023-09-08T01:47:39;16.30;99.90
54126;DHT22;40360;52.992;6.796;2023-09-08T01:50:05;16.30;99.90
54126;DHT22;40360;52.992;6.796;2023-09-08T01:52:31;16.30;99.90
54126;DHT22;40360;52.992;6.796;2023-09-08T01:54:56;16.30;99.90
54126;DHT22;40360;52.992;6.796;2023-09-08T01:57:22;16.20;99.90
54126;DHT22;40360;52.992;6.796;2023-09-08T01:59:47;16.20;99.90
54126;DHT22;40360;52.992;6.796;2023-09-08T02:02:13;16.20;99.90
54126;DHT22;40360;52.992;6.796;2023-09-08T02:04:40;16.20;99.90
54126;DHT22;40360;52.992;6.796;2023-09-08T02:07:05;16.20;99.90
54126;DHT22;40360;52.992;6.796;2023-09-08T02:09:35;16.20;99.90
54126;DHT22;40360;52.992;6.796;2023-09-08T02:12:01;16.10;99.90
54126;DHT22;40360;52.992;6.796;2023-09-08T02:14:27;16.10;99.90
54126;DHT22;40360;52.992;6.796;2023-09-08T02:16:53;16.10;99.90
54126;DHT22;40360;52.992;6.796;2023-09-08T02:19:19;16.10;99.90
54126;DHT22;40360;52.992;6.796;2023-09-08T02:21:45;16.10;99.90
54126;DHT22;40360;52.992;6.796;2023-09-08T02:24:10;16.00;99.90
54126;DHT22;40360;52.992;6.796;2023-09-08T02:26:37;16.00;99.90
54126;DHT22;40360;52.992;6.796;2023-09-08T02:29:03;16.00;99.90
54126;DHT22;40360;52.992;6.796;2023-09-08T02:31:28;16.00;99.90
54126;DHT22;40360;52.992;6.796;2023-09-08T02:33:54;16.00;99.90
54126;DHT22;40360;52.992;6.796;2023-09-08T02:36:20;16.00;99.90
54126;DHT22;40360;52.992;6.796;2023-09-08T02:38:55;16.00;99.90
54126;DHT22;40360;52.992;6.796;2023-09-08T02:41:21;15.90;99.90
54126;DHT22;40360;52.992;6.796;2023-09-08T02:43:48;15.90;99.90
54126;DHT22;40360;52.992;6.796;2023-09-08T02:46:14;15.80;99.90
54126;DHT22;40360;52.992;6.796;2023-09-08T02:48:40;15.80;99.90
54126;DHT22;40360;52.992;6.796;2023-09-08T02:51:06;15.80;99.90
54126;DHT22;40360;52.992;6.796;2023-09-08T02:53:32;15.70;99.90
54126;DHT22;40360;52.992;6.796;2023-09-08T02:55:58;15.70;99.90
54126;DHT22;40360;52.992;6.796;2023-09-08T02:58:24;15.70;99.90
54126;DHT22;40360;52.992;6.796;2023-09-08T03:00:50;15.70;99.90
54126;DHT22;40360;52.992;6.796;2023-09-08T03:03:19;15.60;99.90
54126;DHT22;40360;52.992;6.796;2023-09-08T03:05:45;15.60;99.90
54126;DHT22;40360;52.992;6.796;2023-09-08T03:08:11;15.50;99.90
54126;DHT22;40360;52.992;6.796;2023-09-08T03:10:36;15.60;99.90
54126;DHT22;40360;52.992;6.796;2023-09-08T03:13:05;15.60;99.90
54126;DHT22;40360;52.992;6.796;2023-09-08T03:15:31;15.60;99.90
54126;DHT22;40360;52.992;6.796;2023-09-08T03:17:58;15.60;99.90
54126;DHT22;40360;52.992;6.796;2023-09-08T03:20:24;15.60;99.90
54126;DHT22;40360;52.992;6.796;2023-09-08T03:22:51;15.60;99.90
54126;DHT22;40360;52.992;6.796;2023-09-08T03:25:17;15.60;99.90
54126;DHT22;40360;52.992;6.796;2023-09-08T03:27:43;15.50;99.90
54126;DHT22;40360;52.992;6.796;2023-09-08T03:30:09;15.50;99.90
54126;DHT22;40360;52.992;6.796;2023-09-08T03:32:35;15.50;99.90
54126;DHT22;40360;52.992;6.796;2023-09-08T03:35:01;15.50;99.90
54126;DHT22;40360;52.992;6.796;2023-09-08T03:37:26;15.50;99.90
54126;DHT22;40360;52.992;6.796;2023-09-08T03:39:52;15.50;99.90
54126;DHT22;40360;52.992;6.796;2023-09-08T03:42:18;15.50;99.90
54126;DHT22;40360;52.992;6.796;2023-09-08T03:44:44;15.40;99.90
54126;DHT22;40360;52.992;6.796;2023-09-08T03:47:09;15.40;99.90
54126;DHT22;40360;52.992;6.796;2023-09-08T03:49:35;15.40;99.90
54126;DHT22;40360;52.992;6.796;2023-09-08T03:52:01;15.30;99.90
54126;DHT22;40360;52.992;6.796;2023-09-08T03:54:27;15.40;99.90
54126;DHT22;40360;52.992;6.796;2023-09-08T03:56:52;15.30;99.90
54126;DHT22;40360;52.992;6.796;2023-09-08T03:59:18;15.30;99.90
54126;DHT22;40360;52.992;6.796;2023-09-08T04:01:44;15.80;99.90
54126;DHT22;40360;52.992;6.796;2023-09-08T04:04:09;15.30;99.90
54126;DHT22;40360;52.992;6.796;2023-09-08T04:06:35;15.30;99.90
54126;DHT22;40360;52.992;6.796;2023-09-08T04:09:00;15.30;99.90
54126;DHT22;40360;52.992;6.796;2023-09-08T04:11:26;15.30;99.90
54126;DHT22;40360;52.992;6.796;2023-09-08T04:13:52;15.20;99.90
54126;DHT22;40360;52.992;6.796;2023-09-08T04:16:18;15.20;99.90
54126;DHT22;40360;52.992;6.796;2023-09-08T04:18:43;15.20;99.90
54126;DHT22;40360;52.992;6.796;2023-09-08T04:21:10;15.20;99.90
54126;DHT22;40360;52.992;6.796;2023-09-08T04:23:35;15.20;99.90
54126;DHT22;40360;52.992;6.796;2023-09-08T04:26:01;15.20;99.90
54126;DHT22;40360;52.992;6.796;2023-09-08T04:28:27;15.10;99.90
54126;DHT22;40360;52.992;6.796;2023-09-08T04:30:52;15.10;99.90
54126;DHT22;40360;52.992;6.796;2023-09-08T04:33:18;15.10;99.90
54126;DHT22;40360;52.992;6.796;2023-09-08T04:35:43;15.10;99.90
54126;DHT22;40360;52.992;6.796;2023-09-08T04:38:09;15.10;99.90
54126;DHT22;40360;52.992;6.796;2023-09-08T04:40:34;15.10;99.90
54126;DHT22;40360;52.992;6.796;2023-09-08T04:43:00;15.10;99.90
54126;DHT22;40360;52.992;6.796;2023-09-08T04:45:26;15.10;99.90
54126;DHT22;40360;52.992;6.796;2023-09-08T04:47:51;15.10;99.90
54126;DHT22;40360;52.992;6.796;2023-09-08T04:50:17;15.10;99.90
54126;DHT22;40360;52.992;6.796;2023-09-08T04:52:43;15.10;99.90
54126;DHT22;40360;52.992;6.796;2023-09-08T04:55:09;15.00;99.90
54126;DHT22;40360;52.992;6.796;2023-09-08T04:57:35;15.00;99.90
54126;DHT22;40360;52.992;6.796;2023-09-08T05:00:01;14.90;99.90
54126;DHT22;40360;52.992;6.796;2023-09-08T05:02:26;15.00;99.90
54126;DHT22;40360;52.992;6.796;2023-09-08T05:04:52;14.90;99.90
54126;DHT22;40360;52.992;6.796;2023-09-08T05:07:18;14.90;99.90
54126;DHT22;40360;52.992;6.796;2023-09-08T05:09:44;14.90;99.90
54126;DHT22;40360;52.992;6.796;2023-09-08T05:12:10;14.90;99.90
54126;DHT22;40360;52.992;6.796;2023-09-08T05:14:35;14.80;99.90
54126;DHT22;40360;52.992;6.796;2023-09-08T05:17:01;14.90;99.90
54126;DHT22;40360;52.992;6.796;2023-09-08T05:19:27;15.00;99.90
54126;DHT22;40360;52.992;6.796;2023-09-08T05:21:54;15.00;99.90
54126;DHT22;40360;52.992;6.796;2023-09-08T05:24:20;15.00;99.90
54126;DHT22;40360;52.992;6.796;2023-09-08T05:26:46;15.10;99.90
54126;DHT22;40360;52.992;6.796;2023-09-08T05:29:12;15.10;99.90
54126;DHT22;40360;52.992;6.796;2023-09-08T05:31:38;15.10;99.90
54126;DHT22;40360;52.992;6.796;2023-09-08T05:34:04;15.10;99.90
54126;DHT22;40360;52.992;6.796;2023-09-08T05:36:30;15.20;99.90
54126;DHT22;40360;52.992;6.796;2023-09-08T05:38:56;15.20;99.90
54126;DHT22;40360;52.992;6.796;2023-09-08T05:41:22;15.20;99.90
54126;DHT22;40360;52.992;6.796;2023-09-08T06:01:58;15.90;99.90
54126;DHT22;40360;52.992;6.796;2023-09-08T06:04:23;15.90;99.90
54126;DHT22;40360;52.992;6.796;2023-09-08T06:06:49;15.90;99.90
54126;DHT22;40360;52.992;6.796;2023-09-08T06:09:14;16.10;99.90
54126;DHT22;40360;52.992;6.796;2023-09-08T06:11:41;16.20;99.90
54126;DHT22;40360;52.992;6.796;2023-09-08T06:14:07;16.20;99.90
54126;DHT22;40360;52.992;6.796;2023-09-08T06:16:33;16.30;99.90
54126;DHT22;40360;52.992;6.796;2023-09-08T06:18:58;16.40;99.90
54126;DHT22;40360;52.992;6.796;2023-09-08T06:21:25;16.50;99.90
54126;DHT22;40360;52.992;6.796;2023-09-08T06:23:50;16.50;99.90
54126;DHT22;40360;52.992;6.796;2023-09-08T06:26:16;16.50;99.90
54126;DHT22;40360;52.992;6.796;2023-09-08T06:28:41;16.60;99.90
54126;DHT22;40360;52.992;6.796;2023-09-08T06:31:09;16.60;99.90
54126;DHT22;40360;52.992;6.796;2023-09-08T06:33:34;16.70;99.90
54126;DHT22;40360;52.992;6.796;2023-09-08T06:36:00;16.80;99.90
54126;DHT22;40360;52.992;6.796;2023-09-08T06:38:25;16.80;99.90
54126;DHT22;40360;52.992;6.796;2023-09-08T06:40:51;16.80;99.90
54126;DHT22;40360;52.992;6.796;2023-09-08T06:43:18;17.00;99.90
54126;DHT22;40360;52.992;6.796;2023-09-08T06:45:47;17.10;99.90
54126;DHT22;40360;52.992;6.796;2023-09-08T06:48:14;17.10;99.90
54126;DHT22;40360;52.992;6.796;2023-09-08T06:50:40;17.20;99.90
54126;DHT22;40360;52.992;6.796;2023-09-08T06:53:05;17.30;99.90
54126;DHT22;40360;52.992;6.796;2023-09-08T06:55:31;17.50;99.90
54126;DHT22;40360;52.992;6.796;2023-09-08T06:57:57;17.50;99.90
54126;DHT22;40360;52.992;6.796;2023-09-08T07:00:22;17.70;99.90
54126;DHT22;40360;52.992;6.796;2023-09-08T07:02:48;17.80;99.90
54126;DHT22;40360;52.992;6.796;2023-09-08T07:05:17;17.90;99.90
54126;DHT22;40360;52.992;6.796;2023-09-08T07:07:43;18.00;99.90
54126;DHT22;40360;52.992;6.796;2023-09-08T07:10:09;18.10;99.90
54126;DHT22;40360;52.992;6.796;2023-09-08T07:12:35;18.20;99.90
54126;DHT22;40360;52.992;6.796;2023-09-08T07:15:00;18.30;99.90
54126;DHT22;40360;52.992;6.796;2023-09-08T07:17:26;18.40;99.90
54126;DHT22;40360;52.992;6.796;2023-09-08T07:19:52;18.60;99.90
54126;DHT22;40360;52.992;6.796;2023-09-08T07:22:18;18.60;99.90
54126;DHT22;40360;52.992;6.796;2023-09-08T07:24:44;18.70;99.90
54126;DHT22;40360;52.992;6.796;2023-09-08T07:27:10;18.90;99.90
54126;DHT22;40360;52.992;6.796;2023-09-08T07:29:39;19.00;99.90
54126;DHT22;40360;52.992;6.796;2023-09-08T07:32:06;19.10;99.90
54126;DHT22;40360;52.992;6.796;2023-09-08T07:34:31;19.20;99.90
54126;DHT22;40360;52.992;6.796;2023-09-08T07:36:58;19.30;99.90
54126;DHT22;40360;52.992;6.796;2023-09-08T07:39:25;19.40;99.90
54126;DHT22;40360;52.992;6.796;2023-09-08T07:41:51;19.50;99.90
54126;DHT22;40360;52.992;6.796;2023-09-08T07:44:19;19.60;99.90
54126;DHT22;40360;52.992;6.796;2023-09-08T07:46:45;19.70;99.90
54126;DHT22;40360;52.992;6.796;2023-09-08T07:49:11;19.90;99.90
54126;DHT22;40360;52.992;6.796;2023-09-08T07:51:37;20.00;99.90
54126;DHT22;40360;52.992;6.796;2023-09-08T07:54:03;20.10;99.90
54126;DHT22;40360;52.992;6.796;2023-09-08T07:56:30;20.20;99.90
54126;DHT22;40360;52.992;6.796;2023-09-08T07:58:55;20.30;99.90
54126;DHT22;40360;52.992;6.796;2023-09-08T08:01:21;20.40;99.90
54126;DHT22;40360;52.992;6.796;2023-09-08T08:03:46;20.50;99.90
54126;DHT22;40360;52.992;6.796;2023-09-08T08:06:12;20.70;99.90
54126;DHT22;40360;52.992;6.796;2023-09-08T08:08:38;20.80;99.90
54126;DHT22;40360;52.992;6.796;2023-09-08T08:11:12;20.90;99.90
54126;DHT22;40360;52.992;6.796;2023-09-08T08:13:38;21.00;99.90
54126;DHT22;40360;52.992;6.796;2023-09-08T08:16:03;21.10;99.90
54126;DHT22;40360;52.992;6.796;2023-09-08T08:18:29;21.20;99.90
54126;DHT22;40360;52.992;6.796;2023-09-08T08:20:55;21.40;99.90
54126;DHT22;40360;52.992;6.796;2023-09-08T08:23:20;21.40;99.90
54126;DHT22;40360;52.992;6.796;2023-09-08T08:25:46;21.60;99.90
54126;DHT22;40360;52.992;6.796;2023-09-08T08:28:13;21.70;99.90
54126;DHT22;40360;52.992;6.796;2023-09-08T08:30:39;21.80;99.90
54126;DHT22;40360;52.992;6.796;2023-09-08T08:33:05;21.90;99.90
54126;DHT22;40360;52.992;6.796;2023-09-08T08:35:31;22.10;99.90
54126;DHT22;40360;52.992;6.796;2023-09-08T08:38:00;22.20;99.90
54126;DHT22;40360;52.992;6.796;2023-09-08T08:40:26;22.40;99.90
54126;DHT22;40360;52.992;6.796;2023-09-08T08:42:56;22.60;99.90
54126;DHT22;40360;52.992;6.796;2023-09-08T08:45:25;22.70;99.90
54126;DHT22;40360;52.992;6.796;2023-09-08T08:47:52;22.70;99.90
54126;DHT22;40360;52.992;6.796;2023-09-08T08:50:19;23.00;99.90
54126;DHT22;40360;52.992;6.796;2023-09-08T08:52:45;23.10;99.90
54126;DHT22;40360;52.992;6.796;2023-09-08T08:55:11;23.20;99.90
54126;DHT22;40360;52.992;6.796;2023-09-08T08:57:40;23.40;99.90
54126;DHT22;40360;52.992;6.796;2023-09-08T09:00:11;23.50;99.90
54126;DHT22;40360;52.992;6.796;2023-09-08T09:02:41;23.70;99.90
54126;DHT22;40360;52.992;6.796;2023-09-08T09:05:14;23.80;99.90
54126;DHT22;40360;52.992;6.796;2023-09-08T09:07:41;23.90;99.90
54126;DHT22;40360;52.992;6.796;2023-09-08T09:10:08;24.10;99.90
54126;DHT22;40360;52.992;6.796;2023-09-08T09:12:36;24.20;99.90
54126;DHT22;40360;52.992;6.796;2023-09-08T09:15:02;24.40;99.90
54126;DHT22;40360;52.992;6.796;2023-09-08T09:17:32;24.50;99.90
54126;DHT22;40360;52.992;6.796;2023-09-08T09:20:18;24.60;99.90
54126;DHT22;40360;52.992;6.796;2023-09-08T09:22:46;24.80;99.90
54126;DHT22;40360;52.992;6.796;2023-09-08T09:25:29;24.90;99.90
54126;DHT22;40360;52.992;6.796;2023-09-08T09:27:57;25.00;99.90
54126;DHT22;40360;52.992;6.796;2023-09-08T09:30:24;25.10;99.90
54126;DHT22;40360;52.992;6.796;2023-09-08T09:33:04;25.20;99.90
54126;DHT22;40360;52.992;6.796;2023-09-08T09:38:08;25.40;99.90
54126;DHT22;40360;52.992;6.796;2023-09-08T09:40:34;25.50;99.90
54126;DHT22;40360;52.992;6.796;2023-09-08T09:43:00;25.70;99.90
54126;DHT22;40360;52.992;6.796;2023-09-08T09:45:26;25.80;99.90
54126;DHT22;40360;52.992;6.796;2023-09-08T09:47:52;25.90;99.90
54126;DHT22;40360;52.992;6.796;2023-09-08T09:50:34;25.90;99.90
54126;DHT22;40360;52.992;6.796;2023-09-08T09:53:03;26.10;99.90
54126;DHT22;40360;52.992;6.796;2023-09-08T09:55:33;26.20;99.90
54126;DHT22;40360;52.992;6.796;2023-09-08T09:58:02;26.50;99.90
54126;DHT22;40360;52.992;6.796;2023-09-08T10:00:30;26.40;99.90
54126;DHT22;40360;52.992;6.796;2023-09-08T10:02:57;26.60;99.90
54126;DHT22;40360;52.992;6.796;2023-09-08T10:05:24;26.60;99.90
54126;DHT22;40360;52.992;6.796;2023-09-08T10:07:51;26.70;99.90
54126;DHT22;40360;52.992;6.796;2023-09-08T10:10:18;26.90;99.90
54126;DHT22;40360;52.992;6.796;2023-09-08T10:12:45;26.90;99.90
54126;DHT22;40360;52.992;6.796;2023-09-08T10:15:11;27.00;99.90
54126;DHT22;40360;52.992;6.796;2023-09-08T10:17:40;27.10;99.90
54126;DHT22;40360;52.992;6.796;2023-09-08T10:20:08;27.10;99.90
54126;DHT22;40360;52.992;6.796;2023-09-08T10:22:38;27.20;99.90
54126;DHT22;40360;52.992;6.796;2023-09-08T10:25:07;27.30;99.90
54126;DHT22;40360;52.992;6.796;2023-09-08T10:27:34;27.50;99.90
54126;DHT22;40360;52.992;6.796;2023-09-08T10:30:03;27.70;99.90
54126;DHT22;40360;52.992;6.796;2023-09-08T10:32:35;27.70;99.90
54126;DHT22;40360;52.992;6.796;2023-09-08T10:35:05;27.90;99.90
54126;DHT22;40360;52.992;6.796;2023-09-08T10:37:31;28.00;99.90
54126;DHT22;40360;52.992;6.796;2023-09-08T10:42:46;28.10;99.90
54126;DHT22;40360;52.992;6.796;2023-09-08T10:45:18;28.20;99.90
54126;DHT22;40360;52.992;6.796;2023-09-08T10:50:18;28.30;99.90
54126;DHT22;40360;52.992;6.796;2023-09-08T10:53:03;28.30;99.90
54126;DHT22;40360;52.992;6.796;2023-09-08T10:58:19;28.60;99.90
54126;DHT22;40360;52.992;6.796;2023-09-08T11:00:47;28.70;99.90
54126;DHT22;40360;52.992;6.796;2023-09-08T11:03:14;28.80;99.90
54126;DHT22;40360;52.992;6.796;2023-09-08T11:05:50;28.80;99.90
54126;DHT22;40360;52.992;6.796;2023-09-08T11:08:18;28.80;99.90
54126;DHT22;40360;52.992;6.796;2023-09-08T11:10:44;28.90;99.90
54126;DHT22;40360;52.992;6.796;2023-09-08T11:13:10;29.00;99.90
54126;DHT22;40360;52.992;6.796;2023-09-08T11:15:37;29.00;99.90
54126;DHT22;40360;52.992;6.796;2023-09-08T11:18:06;29.10;99.90
54126;DHT22;40360;52.992;6.796;2023-09-08T11:20:32;29.30;99.90
54126;DHT22;40360;52.992;6.796;2023-09-08T11:22:58;29.30;99.90
54126;DHT22;40360;52.992;6.796;2023-09-08T11:25:23;29.40;99.90
54126;DHT22;40360;52.992;6.796;2023-09-08T11:27:49;29.50;99.90
54126;DHT22;40360;52.992;6.796;2023-09-08T11:30:15;29.60;99.90
54126;DHT22;40360;52.992;6.796;2023-09-08T11:32:41;29.60;99.90
54126;DHT22;40360;52.992;6.796;2023-09-08T11:35:08;29.70;99.90
54126;DHT22;40360;52.992;6.796;2023-09-08T11:37:36;29.80;99.90
54126;DHT22;40360;52.992;6.796;2023-09-08T11:40:04;29.80;99.90
54126;DHT22;40360;52.992;6.796;2023-09-08T11:42:35;29.90;99.90
54126;DHT22;40360;52.992;6.796;2023-09-08T11:45:01;30.00;99.90
54126;DHT22;40360;52.992;6.796;2023-09-08T11:47:29;30.10;99.90
54126;DHT22;40360;52.992;6.796;2023-09-08T11:49:55;30.10;99.90
54126;DHT22;40360;52.992;6.796;2023-09-08T11:52:23;30.20;99.90
54126;DHT22;40360;52.992;6.796;2023-09-08T11:54:50;30.20;99.90
54126;DHT22;40360;52.992;6.796;2023-09-08T11:57:17;30.30;99.90
54126;DHT22;40360;52.992;6.796;2023-09-08T11:59:43;30.30;99.90
54126;DHT22;40360;52.992;6.796;2023-09-08T12:02:11;30.40;99.90
54126;DHT22;40360;52.992;6.796;2023-09-08T12:04:37;30.50;99.90
54126;DHT22;40360;52.992;6.796;2023-09-08T12:07:04;30.50;99.90
54126;DHT22;40360;52.992;6.796;2023-09-08T12:09:30;30.50;99.90
54126;DHT22;40360;52.992;6.796;2023-09-08T12:11:56;30.50;99.90
54126;DHT22;40360;52.992;6.796;2023-09-08T12:14:22;30.50;99.90
54126;DHT22;40360;52.992;6.796;2023-09-08T12:17:05;30.60;99.90
54126;DHT22;40360;52.992;6.796;2023-09-08T12:19:32;30.80;99.90
54126;DHT22;40360;52.992;6.796;2023-09-08T12:22:03;30.80;99.70
54126;DHT22;40360;52.992;6.796;2023-09-08T12:27:15;30.70;99.60
54126;DHT22;40360;52.992;6.796;2023-09-08T12:29:51;30.80;99.80
54126;DHT22;40360;52.992;6.796;2023-09-08T12:32:17;30.90;99.60
54126;DHT22;40360;52.992;6.796;2023-09-08T12:34:43;30.80;98.80
54126;DHT22;40360;52.992;6.796;2023-09-08T12:37:10;30.80;98.90
54126;DHT22;40360;52.992;6.796;2023-09-08T12:39:38;30.90;99.40
54126;DHT22;40360;52.992;6.796;2023-09-08T12:42:04;30.90;99.40
54126;DHT22;40360;52.992;6.796;2023-09-08T12:44:30;31.00;99.70
54126;DHT22;40360;52.992;6.796;2023-09-08T12:46:56;31.20;99.40
54126;DHT22;40360;52.992;6.796;2023-09-08T12:49:21;31.10;98.70
54126;DHT22;40360;52.992;6.796;2023-09-08T12:51:47;31.10;98.70
54126;DHT22;40360;52.992;6.796;2023-09-08T12:54:13;31.20;99.00
54126;DHT22;40360;52.992;6.796;2023-09-08T12:56:39;31.20;98.80
54126;DHT22;40360;52.992;6.796;2023-09-08T12:59:04;31.10;98.70
54126;DHT22;40360;52.992;6.796;2023-09-08T13:01:30;31.00;98.60
54126;DHT22;40360;52.992;6.796;2023-09-08T13:03:55;31.10;98.80
54126;DHT22;40360;52.992;6.796;2023-09-08T13:06:21;31.10;98.60
54126;DHT22;40360;52.992;6.796;2023-09-08T13:08:47;31.10;98.60
54126;DHT22;40360;52.992;6.796;2023-09-08T13:11:12;31.00;98.20
54126;DHT22;40360;52.992;6.796;2023-09-08T13:13:38;31.00;98.30
54126;DHT22;40360;52.992;6.796;2023-09-08T13:16:04;31.10;98.20
54126;DHT22;40360;52.992;6.796;2023-09-08T13:18:29;31.10;98.30
54126;DHT22;40360;52.992;6.796;2023-09-08T13:21:00;31.20;99.00
54126;DHT22;40360;52.992;6.796;2023-09-08T13:23:26;31.20;98.50
54126;DHT22;40360;52.992;6.796;2023-09-08T13:25:52;31.30;98.20
54126;DHT22;40360;52.992;6.796;2023-09-08T13:28:18;31.20;98.30
54126;DHT22;40360;52.992;6.796;2023-09-08T13:30:43;31.20;98.60
54126;DHT22;40360;52.992;6.796;2023-09-08T13:33:09;31.30;98.70
54126;DHT22;40360;52.992;6.796;2023-09-08T13:35:35;31.30;98.70
54126;DHT22;40360;52.992;6.796;2023-09-08T13:38:00;31.40;98.90
54126;DHT22;40360;52.992;6.796;2023-09-08T13:40:28;31.40;98.80
54126;DHT22;40360;52.992;6.796;2023-09-08T13:42:54;31.60;98.70
54126;DHT22;40360;52.992;6.796;2023-09-08T13:45:19;31.60;98.40
54126;DHT22;40360;52.992;6.796;2023-09-08T13:47:45;31.60;98.50
54126;DHT22;40360;52.992;6.796;2023-09-08T13:50:10;31.50;98.30
54126;DHT22;40360;52.992;6.796;2023-09-08T13:52:36;31.60;98.80
54126;DHT22;40360;52.992;6.796;2023-09-08T13:55:05;31.70;98.60
54126;DHT22;40360;52.992;6.796;2023-09-08T13:57:31;31.80;98.20
54126;DHT22;40360;52.992;6.796;2023-09-08T13:59:57;31.90;98.40
54126;DHT22;40360;52.992;6.796;2023-09-08T14:02:23;31.90;98.20
54126;DHT22;40360;52.992;6.796;2023-09-08T14:04:49;31.70;97.90
54126;DHT22;40360;52.992;6.796;2023-09-08T14:07:14;31.50;98.50
54126;DHT22;40360;52.992;6.796;2023-09-08T14:09:40;31.10;98.20
54126;DHT22;40360;52.992;6.796;2023-09-08T14:12:06;30.80;98.20
54126;DHT22;40360;52.992;6.796;2023-09-08T14:14:32;30.60;97.90
54126;DHT22;40360;52.992;6.796;2023-09-08T14:16:57;30.30;98.40
54126;DHT22;40360;52.992;6.796;2023-09-08T14:19:23;30.20;98.80
54126;DHT22;40360;52.992;6.796;2023-09-08T14:21:48;30.00;98.90
54126;DHT22;40360;52.992;6.796;2023-09-08T14:24:14;29.90;98.60
54126;DHT22;40360;52.992;6.796;2023-09-08T14:26:40;29.70;98.30
54126;DHT22;40360;52.992;6.796;2023-09-08T14:31:31;29.50;98.20
54126;DHT22;40360;52.992;6.796;2023-09-08T14:33:58;29.40;98.60
54126;DHT22;40360;52.992;6.796;2023-09-08T14:36:24;29.40;98.50
54126;DHT22;40360;52.992;6.796;2023-09-08T14:38:50;29.50;98.10
54126;DHT22;40360;52.992;6.796;2023-09-08T14:41:16;29.50;98.00
54126;DHT22;40360;52.992;6.796;2023-09-08T14:43:42;29.50;98.50
54126;DHT22;40360;52.992;6.796;2023-09-08T14:46:08;29.30;98.50
54126;DHT22;40360;52.992;6.796;2023-09-08T14:48:33;29.30;98.60
54126;DHT22;40360;52.992;6.796;2023-09-08T14:51:01;29.20;98.60
54126;DHT22;40360;52.992;6.796;2023-09-08T14:53:27;29.10;98.70
54126;DHT22;40360;52.992;6.796;2023-09-08T14:55:54;29.00;99.90
54126;DHT22;40360;52.992;6.796;2023-09-08T14:58:23;28.90;99.20
54126;DHT22;40360;52.992;6.796;2023-09-08T15:00:49;28.90;98.50
54126;DHT22;40360;52.992;6.796;2023-09-08T15:03:14;28.80;98.50
54126;DHT22;40360;52.992;6.796;2023-09-08T15:05:40;28.80;98.70
54126;DHT22;40360;52.992;6.796;2023-09-08T15:08:06;28.80;99.00
54126;DHT22;40360;52.992;6.796;2023-09-08T15:10:32;28.70;98.90
54126;DHT22;40360;52.992;6.796;2023-09-08T15:12:58;28.60;99.10
54126;DHT22;40360;52.992;6.796;2023-09-08T15:15:24;28.60;99.90
54126;DHT22;40360;52.992;6.796;2023-09-08T15:17:53;28.50;99.90
54126;DHT22;40360;52.992;6.796;2023-09-08T15:20:19;28.50;99.70
54126;DHT22;40360;52.992;6.796;2023-09-08T15:22:45;28.40;99.70
54126;DHT22;40360;52.992;6.796;2023-09-08T15:25:11;28.30;99.90
54126;DHT22;40360;52.992;6.796;2023-09-08T15:27:37;28.30;99.90
54126;DHT22;40360;52.992;6.796;2023-09-08T15:30:03;28.30;99.90
54126;DHT22;40360;52.992;6.796;2023-09-08T15:32:28;28.20;99.90
54126;DHT22;40360;52.992;6.796;2023-09-08T15:34:54;28.20;99.90
54126;DHT22;40360;52.992;6.796;2023-09-08T15:37:20;28.10;99.90
54126;DHT22;40360;52.992;6.796;2023-09-08T15:39:45;28.10;99.90
54126;DHT22;40360;52.992;6.796;2023-09-08T15:42:12;28.00;99.90
54126;DHT22;40360;52.992;6.796;2023-09-08T15:44:38;28.00;99.90
54126;DHT22;40360;52.992;6.796;2023-09-08T15:47:03;28.00;99.90
54126;DHT22;40360;52.992;6.796;2023-09-08T15:49:31;28.00;99.90
54126;DHT22;40360;52.992;6.796;2023-09-08T15:51:56;28.00;99.90
54126;DHT22;40360;52.992;6.796;2023-09-08T15:54:22;27.90;99.90
54126;DHT22;40360;52.992;6.796;2023-09-08T15:56:47;27.90;99.90
54126;DHT22;40360;52.992;6.796;2023-09-08T15:59:14;27.90;99.90
54126;DHT22;40360;52.992;6.796;2023-09-08T16:01:40;27.90;99.90
54126;DHT22;40360;52.992;6.796;2023-09-08T16:04:05;27.80;99.90